Time;durP1;ratioP1;P1;durP2;ratioP2;P2;SDS_P1;SDS_P2;PMS_P1;PMS_P2;Temp;Humidity;BMP_temperature;BMP_pressure;BME280_temperature;BME280_humidity;BME280_pressure;Samples;Min_cycle;Max_cycle;Signal;HPM_P1;HPM_P2
2023/02/15 00:01:18;;;;;;;95.93;20.00;;;0.50;99.90;;;;;;6184314;23;20417;-92
2023/02/15 00:03:46;;;;;;;50.83;16.63;;;0.20;99.90;;;;;;6154217;23;20452;-92
2023/02/15 00:24:49;;;;;;;30.30;12.97;;;0.40;99.90;;;;;;6173783;22;2631067;-89
2023/02/15 00:27:16;;;;;;;19.33;11.13;;;-0.10;99.90;;;;;;6280019;22;20225;-92
2023/02/15 00:29:43;;;;;;;18.63;11.80;;;0.00;99.90;;;;;;6278575;22;20393;-93
2023/02/15 00:32:10;;;;;;;26.37;12.17;;;0.20;99.90;;;;;;6278218;22;20428;-93
2023/02/15 00:34:37;;;;;;;19.63;12.07;;;0.20;99.90;;;;;;6277087;22;20413;-93
2023/02/15 00:37:04;;;;;;;21.70;11.70;;;0.50;99.90;;;;;;6278846;22;20398;-92
2023/02/15 00:39:31;;;;;;;22.00;12.97;;;0.60;99.90;;;;;;6278021;22;20416;-93
2023/02/15 00:47:10;;;;;;;19.73;11.77;;;0.20;99.90;;;;;;6239212;22;20463;-93
2023/02/15 00:49:37;;;;;;;22.00;11.53;;;0.10;99.90;;;;;;6277848;22;20479;-92
2023/02/15 00:52:04;;;;;;;24.53;11.63;;;-0.10;99.90;;;;;;6274713;23;20456;-92
2023/02/15 01:02:19;;;;;;;26.67;12.03;;;0.30;99.90;;;;;;6233267;22;20511;-95
2023/02/15 02:13:30;;;;;;;16.97;10.70;;;-0.30;99.90;;;;;;6216774;22;20465;-90
2023/02/15 02:16:05;;;;;;;17.17;10.43;;;-0.30;99.90;;;;;;6212731;23;20418;-92
2023/02/15 02:18:43;;;;;;;19.67;9.97;;;-0.30;99.90;;;;;;6201052;22;20734;-85
2023/02/15 02:21:33;;;;;;;21.53;9.70;;;-0.30;99.90;;;;;;6242381;23;20402;-92
2023/02/15 02:27:17;;;;;;;17.03;9.60;;;0.00;99.90;;;;;;6182450;22;20434;-76
2023/02/15 02:30:29;;;;;;;71.13;17.10;;;-0.20;99.90;;;;;;6198121;22;20982;-78
2023/02/15 02:33:17;;;;;;;40.80;12.50;;;-1.30;99.90;;;;;;6061371;23;20465;-80
2023/02/15 02:35:52;;;;;;;20.53;10.13;;;-1.10;99.90;;;;;;6167953;23;20775;-83
2023/02/15 02:38:27;;;;;;;16.50;8.87;;;-1.00;99.90;;;;;;6180744;23;20417;-85
2023/02/15 02:41:04;;;;;;;28.03;11.80;;;-0.80;99.90;;;;;;6179525;23;20502;-79
2023/02/15 02:43:36;;;;;;;33.50;10.63;;;-0.70;99.90;;;;;;6180510;23;20784;-81
2023/02/15 02:46:09;;;;;;;14.50;9.70;;;-0.80;99.90;;;;;;6180313;23;20384;-82
2023/02/15 02:48:38;;;;;;;20.77;10.83;;;-0.60;99.90;;;;;;6180399;23;20403;-80
2023/02/15 02:51:05;;;;;;;33.50;12.40;;;-0.50;99.90;;;;;;6180285;23;20411;-80
2023/02/15 02:53:33;;;;;;;20.23;10.77;;;-0.80;99.90;;;;;;6181153;23;20408;-81
2023/02/15 02:56:06;;;;;;;28.33;13.20;;;-1.00;99.90;;;;;;6180166;23;20766;-80
2023/02/15 02:58:40;;;;;;;22.13;11.80;;;-1.10;99.90;;;;;;6181631;23;20399;-80
2023/02/15 03:01:13;;;;;;;28.80;13.23;;;-1.30;99.90;;;;;;6182744;23;20402;-80
2023/02/15 03:03:45;;;;;;;60.03;14.60;;;-1.30;99.90;;;;;;6181347;23;20446;-79
2023/02/15 03:06:17;;;;;;;62.33;12.97;;;-1.40;99.90;;;;;;6182559;23;20475;-81
2023/02/15 03:08:49;;;;;;;75.70;17.63;;;-1.40;99.90;;;;;;6182907;23;20404;-80
2023/02/15 03:11:16;;;;;;;39.83;12.43;;;-1.60;99.90;;;;;;6179922;23;20417;-79
2023/02/15 03:13:45;;;;;;;38.80;14.77;;;-1.50;99.90;;;;;;6181063;23;20412;-78
2023/02/15 03:16:26;;;;;;;41.60;13.90;;;-1.50;99.90;;;;;;6180817;23;20428;-81
2023/02/15 03:18:59;;;;;;;34.00;14.03;;;-1.60;99.90;;;;;;6180069;23;20893;-79
2023/02/15 03:21:32;;;;;;;43.87;14.43;;;-1.50;99.90;;;;;;6180405;23;20379;-80
2023/02/15 03:24:05;;;;;;;49.10;14.23;;;-1.40;99.90;;;;;;6180698;23;20453;-79
2023/02/15 03:26:34;;;;;;;39.50;14.60;;;-1.30;99.90;;;;;;6181302;23;20411;-79
2023/02/15 03:29:02;;;;;;;28.00;12.30;;;-1.50;99.90;;;;;;6180092;23;20747;-80
2023/02/15 03:31:33;;;;;;;46.30;14.53;;;-1.50;99.90;;;;;;6180034;23;20399;-81
2023/02/15 03:34:04;;;;;;;50.80;14.50;;;-1.60;99.90;;;;;;6181070;23;20388;-82
2023/02/15 03:36:38;;;;;;;59.83;15.37;;;-1.60;99.90;;;;;;6180686;23;20629;-80
2023/02/15 03:39:12;;;;;;;114.47;21.60;;;-1.60;99.90;;;;;;6180568;23;20404;-80
2023/02/15 03:41:46;;;;;;;49.33;15.70;;;-1.90;99.90;;;;;;6181189;23;20429;-81
2023/02/15 03:44:19;;;;;;;30.57;14.80;;;-1.70;99.90;;;;;;6180407;23;20435;-79
2023/02/15 03:46:51;;;;;;;27.03;11.93;;;-1.50;99.90;;;;;;6180872;23;20397;-81
2023/02/15 03:49:25;;;;;;;22.17;13.33;;;-1.50;99.90;;;;;;6182230;23;20398;-79
2023/02/15 03:51:55;;;;;;;31.40;15.00;;;-1.40;99.90;;;;;;6182008;23;20499;-79
2023/02/15 03:54:43;;;;;;;40.93;16.70;;;-1.10;99.90;;;;;;6181980;23;20490;-80
2023/02/15 04:02:49;;;;;;;29.33;14.13;;;-1.50;99.90;;;;;;6181118;23;20756;-79
2023/02/15 04:05:17;;;;;;;28.90;15.17;;;-1.40;99.90;;;;;;6183381;23;20700;-79
2023/02/15 04:07:44;;;;;;;32.37;16.70;;;-1.10;99.90;;;;;;6181911;23;20410;-80
2023/02/15 04:12:55;;;;;;;22.50;14.03;;;-1.00;99.90;;;;;;6182046;23;20426;-82
2023/02/15 04:18:06;;;;;;;28.83;14.30;;;-0.90;99.90;;;;;;6180844;23;20382;-78
2023/02/15 04:26:04;;;;;;;34.60;13.90;;;-1.50;99.90;;;;;;6181127;23;20406;-81
2023/02/15 04:28:31;;;;;;;56.57;18.40;;;-1.60;99.90;;;;;;6181567;23;20514;-81
2023/02/15 04:30:58;;;;;;;34.00;15.27;;;-1.60;99.90;;;;;;6181910;23;20439;-83
2023/02/15 04:33:25;;;;;;;56.10;17.93;;;-1.60;99.90;;;;;;6184366;23;20545;-79
2023/02/15 04:35:53;;;;;;;74.30;18.10;;;-1.60;99.90;;;;;;6188777;23;20471;-79
2023/02/15 04:38:20;;;;;;;49.40;15.37;;;-1.60;99.90;;;;;;6190780;23;20716;-80
2023/02/15 04:40:50;;;;;;;32.63;13.40;;;-1.60;99.90;;;;;;6181876;23;20421;-80
2023/02/15 04:43:17;;;;;;;51.20;14.67;;;-1.50;99.90;;;;;;6182136;23;20454;-80
2023/02/15 04:45:49;;;;;;;30.30;15.30;;;-1.40;99.90;;;;;;6181324;23;20399;-79
2023/02/15 04:48:16;;;;;;;66.83;17.50;;;-1.70;99.90;;;;;;6181601;23;20414;-80
2023/02/15 04:50:42;;;;;;;46.83;15.73;;;-1.50;99.90;;;;;;6182382;23;20419;-76
2023/02/15 04:53:11;;;;;;;28.00;13.83;;;-1.60;99.90;;;;;;6181848;23;20424;-80
2023/02/15 04:55:38;;;;;;;34.50;15.00;;;-1.50;99.90;;;;;;6182829;23;20737;-79
2023/02/15 04:58:04;;;;;;;57.73;15.60;;;-1.40;99.90;;;;;;6180250;23;21011;-77
2023/02/15 05:00:31;;;;;;;36.43;14.00;;;-1.30;99.90;;;;;;6181148;23;20418;-77
2023/02/15 05:02:58;;;;;;;64.67;17.60;;;-1.20;99.90;;;;;;6187800;23;20783;-84
2023/02/15 05:05:24;;;;;;;38.43;13.57;;;-1.10;99.90;;;;;;6181130;23;20415;-79
2023/02/15 05:07:51;;;;;;;57.00;14.80;;;-1.00;99.90;;;;;;6182428;23;20419;-77
2023/02/15 05:10:21;;;;;;;67.80;18.20;;;-1.00;99.90;;;;;;6182694;23;20510;-85
2023/02/15 05:15:19;;;;;;;28.73;12.83;;;-1.50;99.90;;;;;;6243487;23;20524;-82
2023/02/15 05:17:46;;;;;;;64.63;16.07;;;-1.50;99.90;;;;;;6223251;23;20419;-80
2023/02/15 05:20:12;;;;;;;29.40;13.00;;;-1.60;99.90;;;;;;6212083;23;20440;-78
2023/02/15 05:22:40;;;;;;;71.63;15.10;;;-1.80;99.90;;;;;;6211019;23;20407;-82
2023/02/15 05:30:39;;;;;;;47.33;15.17;;;-1.80;99.90;;;;;;6212617;23;20410;-81
2023/02/15 05:33:06;;;;;;;37.30;14.23;;;-2.00;99.90;;;;;;6211936;23;20505;-79
2023/02/15 05:35:33;;;;;;;67.17;19.50;;;-1.90;99.90;;;;;;6211608;23;20425;-80
2023/02/15 05:38:00;;;;;;;40.80;13.53;;;-2.00;99.90;;;;;;6212258;23;20430;-78
2023/02/15 05:40:27;;;;;;;21.57;13.67;;;-2.20;99.90;;;;;;6213195;23;20422;-80
2023/02/15 05:42:55;;;;;;;23.57;12.73;;;-1.80;99.90;;;;;;6213465;23;20411;-82
2023/02/15 05:45:22;;;;;;;31.17;15.17;;;-1.90;99.90;;;;;;6214500;23;20447;-80
2023/02/15 05:47:48;;;;;;;37.70;15.80;;;-1.80;99.90;;;;;;6214373;23;20428;-80
2023/02/15 05:50:15;;;;;;;48.27;15.83;;;-1.70;99.90;;;;;;6213396;23;20425;-82
2023/02/15 05:52:42;;;;;;;32.77;15.13;;;-2.00;99.90;;;;;;6213745;23;20433;-82
2023/02/15 05:55:09;;;;;;;34.43;14.20;;;-1.90;99.90;;;;;;6215425;23;20412;-81
2023/02/15 05:57:36;;;;;;;42.23;16.20;;;-1.60;99.90;;;;;;6216617;23;20430;-81
2023/02/15 06:00:06;;;;;;;42.83;15.63;;;-1.70;99.90;;;;;;6220577;23;20915;-79
2023/02/15 06:02:35;;;;;;;34.20;14.77;;;-1.80;99.90;;;;;;6216041;23;20706;-82
2023/02/15 06:05:01;;;;;;;34.20;17.07;;;-1.90;99.90;;;;;;6213239;23;20441;-79
2023/02/15 06:07:28;;;;;;;25.47;15.00;;;-2.00;99.90;;;;;;6223394;23;20412;-77
2023/02/15 06:09:55;;;;;;;48.07;16.80;;;-1.90;99.90;;;;;;6223885;23;20812;-82
2023/02/15 06:12:22;;;;;;;31.00;15.67;;;-1.90;99.90;;;;;;6228004;23;20414;-81
2023/02/15 06:14:48;;;;;;;31.03;16.37;;;-1.80;99.90;;;;;;6220244;23;20426;-80
2023/02/15 06:17:17;;;;;;;33.23;16.00;;;-1.80;99.90;;;;;;6215971;23;20418;-80
2023/02/15 06:19:44;;;;;;;78.93;23.13;;;-1.90;99.90;;;;;;6215264;23;20467;-79
2023/02/15 06:22:13;;;;;;;45.07;19.43;;;-2.30;99.90;;;;;;6218565;23;20406;-79
2023/02/15 06:24:42;;;;;;;40.27;18.70;;;-2.10;99.90;;;;;;6216431;23;20503;-79
2023/02/15 06:27:09;;;;;;;104.10;26.80;;;-2.10;99.90;;;;;;6219376;23;20426;-80
2023/02/15 06:29:35;;;;;;;64.13;21.90;;;-2.20;99.90;;;;;;6219017;23;20752;-79
2023/02/15 06:32:04;;;;;;;50.30;19.90;;;-2.30;99.90;;;;;;6224504;23;20478;-79
2023/02/15 06:34:32;;;;;;;63.07;20.57;;;-2.10;99.90;;;;;;6225747;23;20410;-79
2023/02/15 06:36:59;;;;;;;49.30;18.07;;;-2.10;99.90;;;;;;6236314;23;20412;-80
2023/02/15 06:39:26;;;;;;;37.17;18.27;;;-2.10;99.90;;;;;;6241421;23;20413;-80
2023/02/15 06:41:53;;;;;;;40.73;16.67;;;-2.10;99.90;;;;;;6216671;23;20753;-76
2023/02/15 06:44:20;;;;;;;44.33;20.77;;;-2.00;99.90;;;;;;6210744;23;20452;-75
2023/02/15 06:46:47;;;;;;;37.70;18.93;;;-2.10;99.90;;;;;;6210154;23;20410;-76
2023/02/15 06:49:13;;;;;;;39.03;18.60;;;-2.00;99.90;;;;;;6209784;23;20418;-76
2023/02/15 06:51:41;;;;;;;41.93;20.67;;;-2.00;99.90;;;;;;6211244;23;20432;-78
2023/02/15 06:54:08;;;;;;;34.43;18.43;;;-2.00;99.90;;;;;;6217366;23;20398;-76
2023/02/15 06:56:35;;;;;;;46.10;20.93;;;-2.00;99.90;;;;;;6211978;23;20414;-77
2023/02/15 06:59:02;;;;;;;36.50;18.10;;;-2.10;99.90;;;;;;6211165;23;20495;-76
2023/02/15 07:01:29;;;;;;;39.80;17.33;;;-2.00;99.90;;;;;;6210700;23;20461;-77
2023/02/15 07:03:56;;;;;;;30.30;16.77;;;-2.00;99.90;;;;;;6211143;23;20968;-77
2023/02/15 07:06:23;;;;;;;33.67;17.43;;;-1.70;99.90;;;;;;6209252;23;20694;-76
2023/02/15 07:08:51;;;;;;;33.03;18.57;;;-1.60;99.90;;;;;;6210639;23;20406;-77
2023/02/15 07:14:01;;;;;;;31.47;16.50;;;-1.70;99.90;;;;;;6211669;23;20448;-77
2023/02/15 07:16:28;;;;;;;35.70;18.03;;;-1.60;99.90;;;;;;6216886;23;20556;-77
2023/02/15 07:18:55;;;;;;;29.97;16.37;;;-1.70;99.90;;;;;;6216094;23;21010;-76
2023/02/15 07:21:22;;;;;;;27.97;17.30;;;-1.80;99.90;;;;;;6215829;23;20470;-77
2023/02/15 07:23:50;;;;;;;30.53;17.33;;;-1.70;99.90;;;;;;6215986;23;20429;-77
2023/02/15 07:26:17;;;;;;;38.70;19.57;;;-1.60;99.90;;;;;;6215117;23;20406;-77
2023/02/15 07:28:44;;;;;;;34.33;18.03;;;-1.80;99.90;;;;;;6216223;23;20457;-79
2023/02/15 07:31:11;;;;;;;30.90;16.30;;;-1.40;99.90;;;;;;6212585;23;20406;-79
2023/02/15 07:33:37;;;;;;;25.13;15.80;;;-1.10;99.90;;;;;;6210617;23;20428;-78
2023/02/15 07:36:05;;;;;;;33.80;16.07;;;-1.00;99.90;;;;;;6209083;23;20406;-78
2023/02/15 07:38:34;;;;;;;26.87;14.30;;;-0.80;99.90;;;;;;6209313;23;20391;-76
2023/02/15 07:41:05;;;;;;;32.67;15.97;;;-0.70;99.90;;;;;;6210460;23;20390;-78
2023/02/15 07:43:34;;;;;;;35.73;18.87;;;-0.60;99.90;;;;;;6214291;23;20397;-81
2023/02/15 07:46:02;;;;;;;30.80;16.53;;;-0.50;99.90;;;;;;6216623;23;20452;-81
2023/02/15 07:48:29;;;;;;;26.20;14.50;;;-0.40;99.90;;;;;;6214006;23;20885;-78
2023/02/15 07:50:59;;;;;;;25.93;15.67;;;0.10;99.90;;;;;;6214872;23;20745;-82
2023/02/15 07:53:26;;;;;;;21.27;14.63;;;0.00;99.90;;;;;;6215429;23;20418;-78
2023/02/15 07:55:53;;;;;;;22.10;13.93;;;0.20;99.90;;;;;;6210325;23;20636;-83
2023/02/15 07:58:50;;;;;;;25.03;15.60;;;0.20;99.90;;;;;;6210149;23;20403;-78
2023/02/15 08:01:08;;;;;;;23.07;13.40;;;0.30;99.90;;;;;;6208180;23;20407;-78
2023/02/15 08:03:35;;;;;;;22.03;14.10;;;0.30;99.90;;;;;;6207667;23;20426;-78
2023/02/15 08:06:02;;;;;;;19.57;12.63;;;0.40;99.90;;;;;;6209567;23;20482;-77
2023/02/15 08:08:32;;;;;;;22.97;12.97;;;0.50;99.90;;;;;;6210163;23;20425;-78
2023/02/15 08:13:53;;;;;;;24.33;14.30;;;-0.20;99.90;;;;;;6209240;23;20514;-76
2023/02/15 08:16:21;;;;;;;23.00;12.87;;;-1.10;99.90;;;;;;6209562;23;20505;-77
2023/02/15 08:18:48;;;;;;;23.27;12.90;;;-1.10;99.90;;;;;;6208882;23;20512;-76
2023/02/15 08:21:15;;;;;;;24.40;15.30;;;-0.80;99.90;;;;;;6208845;23;20757;-77
2023/02/15 08:23:42;;;;;;;21.30;13.43;;;-0.90;99.90;;;;;;6208670;23;20410;-77
2023/02/15 08:26:09;;;;;;;24.80;14.40;;;-0.70;99.90;;;;;;6209426;23;20527;-77
2023/02/15 08:28:36;;;;;;;20.40;12.33;;;-0.80;99.90;;;;;;6208906;23;20418;-76
2023/02/15 08:31:09;;;;;;;25.30;14.30;;;-1.10;99.90;;;;;;6208237;23;20394;-74
2023/02/15 08:33:37;;;;;;;28.60;15.37;;;-1.10;99.90;;;;;;6209086;23;20509;-88
2023/02/15 08:36:05;;;;;;;25.20;14.70;;;-1.40;99.90;;;;;;6183608;23;20486;-75
2023/02/15 08:38:32;;;;;;;20.60;14.13;;;-1.10;99.90;;;;;;6181546;23;20416;-76
2023/02/15 08:41:09;;;;;;;30.23;16.83;;;-0.70;99.90;;;;;;6182085;23;20411;-76
2023/02/15 08:43:35;;;;;;;26.97;16.77;;;-0.70;99.90;;;;;;6180285;23;20403;-75
2023/02/15 08:46:02;;;;;;;27.70;16.13;;;-0.90;99.90;;;;;;6180623;23;20439;-76
2023/02/15 08:48:30;;;;;;;25.13;15.67;;;-0.90;99.90;;;;;;6180912;23;20396;-75
2023/02/15 08:50:57;;;;;;;19.33;13.80;;;-1.00;99.90;;;;;;6180888;23;20415;-75
2023/02/15 08:53:24;;;;;;;23.50;14.30;;;-0.70;99.90;;;;;;6181243;23;20419;-76
2023/02/15 08:55:56;;;;;;;19.20;12.63;;;-0.10;99.90;;;;;;6180142;23;20494;-75
2023/02/15 08:58:23;;;;;;;21.33;13.57;;;0.30;99.90;;;;;;6180699;23;20396;-76
2023/02/15 09:00:50;;;;;;;20.23;13.47;;;0.40;99.90;;;;;;6179154;23;20429;-76
2023/02/15 09:03:17;;;;;;;18.30;11.63;;;0.40;99.90;;;;;;6180584;23;20410;-75
2023/02/15 09:05:45;;;;;;;17.43;13.07;;;0.40;99.90;;;;;;6179521;23;20497;-77
2023/02/15 09:08:12;;;;;;;19.97;12.77;;;0.40;99.90;;;;;;6180003;23;20504;-75
2023/02/15 09:10:39;;;;;;;18.70;11.80;;;1.20;99.90;;;;;;6180194;23;20396;-78
2023/02/15 09:13:06;;;;;;;16.70;11.17;;;1.50;99.90;;;;;;6180092;23;20400;-76
2023/02/15 09:15:32;;;;;;;15.70;12.27;;;2.20;99.90;;;;;;6178735;23;20392;-76
2023/02/15 09:18:04;;;;;;;15.10;11.23;;;3.70;99.90;;;;;;6180364;23;20412;-76
2023/02/15 09:20:30;;;;;;;21.30;13.03;;;4.90;99.90;;;;;;6179823;23;20396;-76
2023/02/15 09:22:59;;;;;;;17.10;13.10;;;3.70;99.90;;;;;;6179806;23;20412;-76
2023/02/15 09:25:27;;;;;;;19.90;13.50;;;3.00;99.90;;;;;;6177336;23;20439;-77
2023/02/15 09:28:01;;;;;;;21.83;14.10;;;2.90;99.90;;;;;;6174358;23;20531;-78
2023/02/15 09:30:28;;;;;;;17.83;12.80;;;2.80;99.90;;;;;;6174179;23;20916;-77
2023/02/15 09:32:55;;;;;;;22.53;13.50;;;3.10;99.90;;;;;;6176821;23;20725;-76
2023/02/15 09:35:22;;;;;;;19.67;12.87;;;2.60;99.90;;;;;;6176658;23;20412;-77
2023/02/15 09:37:48;;;;;;;17.27;13.13;;;3.10;99.90;;;;;;6179714;23;20412;-77
2023/02/15 09:40:17;;;;;;;20.77;16.07;;;3.90;99.90;;;;;;6180896;23;20412;-78
2023/02/15 09:42:55;;;;;;;14.70;12.90;;;3.70;99.90;;;;;;6181143;23;20905;-77
2023/02/15 09:45:31;;;;;;;15.30;13.47;;;4.10;99.90;;;;;;6180680;23;20436;-77
2023/02/15 09:48:17;;;;;;;16.20;12.90;;;5.20;99.90;;;;;;6177611;23;20463;-77
2023/02/15 09:50:53;;;;;;;16.03;12.60;;;7.20;99.90;;;;;;6178882;23;20410;-77
2023/02/15 09:53:40;;;;;;;18.60;13.30;;;8.00;99.90;;;;;;6177345;23;21065;-77
2023/02/15 09:56:16;;;;;;;15.43;12.73;;;6.60;99.90;;;;;;6176394;23;20961;-77
2023/02/15 09:58:53;;;;;;;16.83;12.73;;;5.00;99.90;;;;;;6176403;23;20483;-77
2023/02/15 10:01:31;;;;;;;20.93;14.30;;;5.20;99.90;;;;;;6177072;23;20404;-77
2023/02/15 10:04:18;;;;;;;17.13;12.30;;;6.40;99.90;;;;;;6177414;23;20399;-77
2023/02/15 10:06:56;;;;;;;16.13;11.83;;;7.00;99.90;;;;;;6176490;23;20444;-77
2023/02/15 10:09:40;;;;;;;15.47;12.07;;;9.20;99.90;;;;;;6178088;23;20420;-77
2023/02/15 10:12:27;;;;;;;15.70;12.93;;;9.70;99.90;;;;;;6177712;23;20859;-77
2023/02/15 10:15:19;;;;;;;19.67;12.53;;;9.00;99.90;;;;;;6177242;23;20964;-77
2023/02/15 10:18:02;;;;;;;17.47;12.83;;;11.10;99.90;;;;;;6176587;23;20389;-77
2023/02/15 10:20:41;;;;;;;17.57;14.23;;;12.20;99.90;;;;;;6176568;23;20973;-78
2023/02/15 10:23:23;;;;;;;21.00;18.27;;;11.70;99.90;;;;;;6177257;23;20424;-77
2023/02/15 10:25:56;;;;;;;15.90;13.93;;;9.50;99.90;;;;;;6176759;23;20389;-77
2023/02/15 10:28:30;;;;;;;15.03;13.23;;;8.50;99.90;;;;;;6176747;23;20392;-77
2023/02/15 10:31:04;;;;;;;14.83;13.23;;;9.10;99.90;;;;;;6177275;23;20719;-77
2023/02/15 10:33:40;;;;;;;18.03;12.50;;;8.10;99.90;;;;;;6176813;23;20480;-77
2023/02/15 10:36:22;;;;;;;17.37;13.30;;;9.90;99.90;;;;;;6176388;23;20432;-77
2023/02/15 10:38:59;;;;;;;17.57;14.10;;;11.40;99.90;;;;;;6176424;23;20472;-78
2023/02/15 10:41:37;;;;;;;18.87;14.77;;;10.10;99.90;;;;;;6176472;23;20412;-77
2023/02/15 10:44:19;;;;;;;17.50;13.60;;;9.30;99.90;;;;;;6178570;23;20553;-77
2023/02/15 10:47:16;;;;;;;19.63;15.13;;;8.10;99.90;;;;;;6176423;23;20392;-76
2023/02/15 10:50:06;;;;;;;20.43;14.63;;;6.80;99.90;;;;;;6175840;23;20396;-77
2023/02/15 10:52:43;;;;;;;20.63;14.30;;;7.00;99.90;;;;;;6178524;23;20748;-79
2023/02/15 10:55:19;;;;;;;24.70;16.00;;;6.70;99.90;;;;;;6183410;23;20710;-82
2023/02/15 10:57:58;;;;;;;24.70;15.73;;;6.60;99.90;;;;;;6180858;23;20512;-78
2023/02/15 11:00:31;;;;;;;19.03;14.10;;;7.30;99.90;;;;;;6176417;23;20396;-77
2023/02/15 11:03:23;;;;;;;28.83;16.93;;;8.00;99.90;;;;;;6176550;23;20396;-77
2023/02/15 11:06:00;;;;;;;24.30;15.97;;;7.30;99.90;;;;;;6176346;23;20521;-77
2023/02/15 11:08:30;;;;;;;19.70;15.90;;;9.80;99.90;;;;;;6176760;23;20406;-76
2023/02/15 11:11:02;;;;;;;27.43;16.60;;;11.90;99.90;;;;;;6176953;23;20408;-75
2023/02/15 11:13:35;;;;;;;21.17;16.47;;;14.10;99.90;;;;;;6176106;23;20438;-75
2023/02/15 11:16:06;;;;;;;23.20;16.20;;;12.50;99.90;;;;;;6175960;23;20454;-75
2023/02/15 11:18:37;;;;;;;28.00;21.00;;;13.80;99.90;;;;;;6174735;23;20385;-75
2023/02/15 11:21:08;;;;;;;32.50;18.07;;;10.90;99.90;;;;;;6176344;23;20483;-74
2023/02/15 11:23:39;;;;;;;25.90;18.60;;;12.50;99.90;;;;;;6176016;23;20809;-75
2023/02/15 11:26:13;;;;;;;25.03;17.80;;;13.70;99.90;;;;;;6180075;23;20480;-75
2023/02/15 11:28:46;;;;;;;25.23;18.80;;;15.60;99.90;;;;;;6182846;23;20419;-78
2023/02/15 11:31:18;;;;;;;21.83;17.60;;;16.60;99.90;;;;;;6182950;23;20396;-77
2023/02/15 11:33:48;;;;;;;23.40;19.37;;;16.20;99.90;;;;;;6182993;23;20388;-76
2023/02/15 11:36:19;;;;;;;28.37;19.87;;;17.20;99.90;;;;;;6178176;23;20466;-76
2023/02/15 11:38:50;;;;;;;22.87;18.63;;;17.80;99.90;;;;;;6174039;23;20377;-76
2023/02/15 11:41:23;;;;;;;24.30;19.37;;;17.50;99.90;;;;;;6174242;23;20384;-76
2023/02/15 11:43:55;;;;;;;24.60;19.27;;;16.00;99.90;;;;;;6173469;23;20408;-76
2023/02/15 11:46:23;;;;;;;23.20;19.67;;;17.00;99.90;;;;;;6173764;23;20416;-76
2023/02/15 11:48:50;;;;;;;24.60;18.80;;;17.50;99.90;;;;;;6173770;23;20408;-76
2023/02/15 11:51:19;;;;;;;34.10;20.10;;;16.00;99.90;;;;;;6174368;23;20440;-77
2023/02/15 11:53:46;;;;;;;24.67;19.13;;;16.30;99.90;;;;;;6173547;23;20416;-76
2023/02/15 11:56:16;;;;;;;28.30;20.70;;;15.50;99.90;;;;;;6175419;23;20441;-75
2023/02/15 11:58:48;;;;;;;22.90;20.60;;;15.70;99.90;;;;;;6174813;23;20794;-76
2023/02/15 12:01:29;;;;;;;25.10;22.40;;;16.10;99.90;;;;;;6174160;23;20746;-75
2023/02/15 12:04:02;;;;;;;27.03;20.10;;;16.90;99.90;;;;;;6173963;23;20395;-75
2023/02/15 12:06:33;;;;;;;28.87;20.63;;;16.50;99.90;;;;;;6175115;23;20402;-78
2023/02/15 12:09:06;;;;;;;33.73;23.33;;;17.10;99.90;;;;;;6178364;23;20427;-77
2023/02/15 12:11:36;;;;;;;26.03;21.07;;;16.00;99.90;;;;;;6175612;23;20385;-77
2023/02/15 12:14:06;;;;;;;38.50;25.70;;;17.80;99.90;;;;;;6175096;23;20428;-76
2023/02/15 12:16:43;;;;;;;29.37;22.40;;;14.50;99.90;;;;;;6175057;23;20440;-75
2023/02/15 12:19:30;;;;;;;24.40;21.80;;;17.10;99.90;;;;;;6175610;23;20714;-76
2023/02/15 12:21:58;;;;;;;29.30;21.53;;;17.90;99.90;;;;;;6175240;23;20908;-77
2023/02/15 12:24:28;;;;;;;26.27;22.17;;;17.90;99.90;;;;;;6173910;23;20403;-79
2023/02/15 12:27:01;;;;;;;29.70;21.80;;;19.10;99.90;;;;;;6174147;23;20388;-76
2023/02/15 12:29:31;;;;;;;21.77;19.53;;;16.10;99.90;;;;;;6174389;23;20461;-76
2023/02/15 12:31:59;;;;;;;36.47;22.77;;;16.90;99.90;;;;;;6174544;23;21054;-76
2023/02/15 12:34:41;;;;;;;23.93;20.30;;;18.60;99.90;;;;;;6175235;23;20747;-75
2023/02/15 12:37:15;;;;;;;24.20;18.77;;;19.80;99.90;;;;;;6174798;23;20444;-75
2023/02/15 12:39:52;;;;;;;26.37;19.07;;;21.10;99.90;;;;;;6174591;23;20391;-77
2023/02/15 12:42:20;;;;;;;34.33;25.53;;;19.20;99.90;;;;;;6174324;23;20402;-75
2023/02/15 12:45:01;;;;;;;20.73;18.47;;;18.80;99.90;;;;;;6173073;23;20947;-75
2023/02/15 12:47:31;;;;;;;22.37;19.07;;;21.00;99.90;;;;;;6173541;23;20392;-76
2023/02/15 12:50:17;;;;;;;26.20;19.60;;;20.50;99.90;;;;;;6173527;23;20467;-76
2023/02/15 12:52:47;;;;;;;22.60;17.97;;;20.90;99.90;;;;;;6174016;23;20424;-75
2023/02/15 12:55:22;;;;;;;20.50;18.30;;;21.10;99.90;;;;;;6173862;23;20580;-77
2023/02/15 12:57:50;;;;;;;22.17;19.70;;;19.90;99.90;;;;;;6173575;23;20414;-76
2023/02/15 13:00:31;;;;;;;25.73;19.70;;;19.00;99.90;;;;;;6172758;23;20506;-74
2023/02/15 13:03:01;;;;;;;21.20;18.13;;;21.20;99.90;;;;;;6173400;23;20396;-74
2023/02/15 13:05:33;;;;;;;19.90;17.80;;;19.50;99.90;;;;;;6173926;23;20431;-74
2023/02/15 13:08:02;;;;;;;20.40;17.03;;;20.20;99.90;;;;;;6173704;23;20960;-74
2023/02/15 13:10:37;;;;;;;21.60;17.77;;;20.90;99.90;;;;;;6174187;23;20414;-78
2023/02/15 13:13:11;;;;;;;21.73;17.77;;;21.90;99.90;;;;;;6173332;23;20975;-81
2023/02/15 13:15:40;;;;;;;21.73;17.90;;;21.60;99.90;;;;;;6173606;23;20403;-76
2023/02/15 13:18:17;;;;;;;18.50;16.60;;;20.60;99.90;;;;;;6173091;23;20406;-76
2023/02/15 13:20:45;;;;;;;21.70;18.97;;;21.00;99.90;;;;;;6173946;23;20486;-79
2023/02/15 13:23:25;;;;;;;20.70;17.73;;;19.00;99.90;;;;;;6176753;23;20442;-78
2023/02/15 13:25:52;;;;;;;20.40;16.20;;;18.20;99.90;;;;;;6176329;23;20478;-76
2023/02/15 13:28:23;;;;;;;23.53;18.50;;;20.60;99.90;;;;;;6175789;23;20411;-75
2023/02/15 13:30:52;;;;;;;17.40;15.60;;;22.30;99.90;;;;;;6174713;23;20423;-75
2023/02/15 13:33:26;;;;;;;18.97;17.07;;;22.20;99.90;;;;;;6170548;23;20747;-74
2023/02/15 13:36:00;;;;;;;20.73;16.83;;;21.90;99.90;;;;;;6172606;23;20467;-76
2023/02/15 13:38:44;;;;;;;18.20;16.27;;;19.70;99.90;;;;;;6175349;23;20395;-76
2023/02/15 13:41:15;;;;;;;22.13;16.53;;;21.30;99.90;;;;;;6178521;23;20376;-75
2023/02/15 13:43:53;;;;;;;22.63;17.93;;;21.20;99.90;;;;;;6178142;23;20399;-75
2023/02/15 13:46:34;;;;;;;18.50;16.23;;;19.30;99.90;;;;;;6177947;23;20462;-75
2023/02/15 13:49:17;;;;;;;17.27;15.03;;;18.90;99.90;;;;;;6176636;23;20864;-75
2023/02/15 13:51:54;;;;;;;17.90;16.20;;;19.70;99.90;;;;;;6177536;23;20528;-76
2023/02/15 13:54:36;;;;;;;21.03;15.53;;;21.40;99.90;;;;;;6175695;23;20411;-76
2023/02/15 13:57:18;;;;;;;17.57;15.77;;;21.70;99.90;;;;;;6176887;23;20431;-76
2023/02/15 13:59:58;;;;;;;19.10;16.03;;;21.20;99.90;;;;;;6177199;23;20402;-76
2023/02/15 14:02:58;;;;;;;20.83;16.00;;;16.90;99.90;;;;;;6176497;23;20384;-76
2023/02/15 14:05:57;;;;;;;18.17;16.23;;;19.80;99.90;;;;;;6177929;23;20758;-76
2023/02/15 14:08:41;;;;;;;17.87;15.97;;;21.80;99.90;;;;;;6175918;23;20412;-75
2023/02/15 14:11:12;;;;;;;19.10;17.10;;;19.30;99.90;;;;;;6178256;23;20540;-76
2023/02/15 14:14:06;;;;;;;18.67;16.60;;;17.60;99.90;;;;;;6179525;23;20763;-75
2023/02/15 14:16:42;;;;;;;20.20;16.50;;;16.70;99.90;;;;;;6176193;23;20458;-76
2023/02/15 14:19:21;;;;;;;20.13;14.57;;;16.40;99.90;;;;;;6179828;23;20437;-75
2023/02/15 14:21:57;;;;;;;16.70;15.10;;;18.50;99.90;;;;;;6179638;23;20972;-76
2023/02/15 14:24:34;;;;;;;16.80;14.00;;;19.10;99.90;;;;;;6178540;23;20940;-76
2023/02/15 14:27:10;;;;;;;23.37;15.57;;;18.90;99.90;;;;;;6178223;23;20892;-75
2023/02/15 14:29:49;;;;;;;17.13;15.43;;;19.50;99.90;;;;;;6178914;23;20782;-77
2023/02/15 14:32:22;;;;;;;20.13;16.57;;;20.10;99.90;;;;;;6178825;23;20388;-76
2023/02/15 14:34:54;;;;;;;18.33;16.17;;;19.20;99.90;;;;;;6178804;23;20389;-79
2023/02/15 14:37:31;;;;;;;24.53;18.50;;;18.50;99.90;;;;;;6179159;23;20452;-87
2023/02/15 14:42:55;;;;;;;18.13;14.00;;;17.70;99.90;;;;;;6171901;23;20447;-81
2023/02/15 14:45:29;;;;;;;20.97;15.20;;;17.40;99.90;;;;;;6221352;23;20395;-81
2023/02/15 14:48:05;;;;;;;17.17;15.40;;;18.20;99.90;;;;;;6203986;23;20710;-85
2023/02/15 14:50:47;;;;;;;16.80;13.67;;;19.10;99.90;;;;;;6216948;23;20403;-85
2023/02/15 14:56:29;;;;;;;23.17;15.67;;;18.10;99.90;;;;;;6148576;23;20452;-74
2023/02/15 14:59:18;;;;;;;18.33;15.70;;;17.20;99.90;;;;;;6144357;23;20465;-75
2023/02/15 15:01:59;;;;;;;24.30;15.17;;;15.10;99.90;;;;;;6164463;23;20440;-79
2023/02/15 15:04:32;;;;;;;17.10;14.30;;;14.30;99.90;;;;;;6153104;23;21015;-77
2023/02/15 15:07:04;;;;;;;48.53;43.23;;;14.20;99.90;;;;;;6147915;23;20428;-79
2023/02/15 15:09:36;;;;;;;20.87;17.17;;;13.80;99.90;;;;;;6166632;23;20482;-81
2023/02/15 15:12:39;;;;;;;18.77;16.20;;;12.70;99.90;;;;;;6170745;23;20509;-82